createdAt,value
2018-01-28T00:00:10.232Z,58.97
2018-01-28T00:02:37.858Z,65.40
2018-01-28T00:05:05.503Z,65.23
2018-01-28T00:07:33.105Z,62.93
2018-01-28T00:10:00.675Z,64.87
2018-01-28T00:12:28.298Z,65.20
2018-01-28T00:14:55.890Z,65.70
2018-01-28T00:17:23.530Z,61.10
2018-01-28T00:19:51.082Z,63.43
2018-01-28T00:22:18.773Z,62.27
2018-01-28T00:24:46.355Z,62.60
2018-01-28T00:27:13.935Z,61.57
2018-01-28T00:29:41.581Z,63.77
2018-01-28T00:32:09.220Z,67.43
2018-01-28T00:34:36.818Z,60.67
2018-01-28T00:37:04.427Z,63.70
2018-01-28T00:39:31.996Z,61.83
2018-01-28T00:41:59.576Z,62.20
2018-01-28T00:44:27.193Z,55.87
2018-01-28T00:46:54.764Z,60.10
2018-01-28T00:49:22.334Z,61.80
2018-01-28T00:51:50.028Z,58.33
2018-01-28T00:54:17.722Z,64.60
2018-01-28T00:56:45.423Z,64.23
2018-01-28T00:59:13.047Z,61.10
2018-01-28T01:01:40.624Z,85.57
2018-01-28T01:04:08.181Z,61.87
2018-01-28T01:06:35.812Z,67.80
2018-01-28T01:09:03.477Z,68.30
2018-01-28T01:11:31.069Z,72.73
2018-01-28T01:13:58.690Z,70.87
2018-01-28T01:16:26.268Z,72.60
2018-01-28T01:18:53.827Z,70.87
2018-01-28T01:21:21.431Z,62.93
2018-01-28T01:23:49.016Z,66.20
2018-01-28T01:26:16.583Z,62.10
2018-01-28T01:28:44.196Z,56.03
2018-01-28T01:31:11.777Z,57.67
2018-01-28T01:33:39.331Z,92.10
2018-01-28T01:36:06.946Z,62.73
2018-01-28T01:38:34.523Z,59.00
2018-01-28T01:41:02.108Z,60.93
2018-01-28T01:43:29.730Z,58.87
2018-01-28T01:45:57.294Z,62.67
2018-01-28T01:48:24.859Z,60.87
2018-01-28T01:50:52.501Z,60.47
2018-01-28T01:53:20.076Z,67.67
2018-01-28T01:55:47.640Z,60.80
2018-01-28T01:58:15.266Z,62.13
2018-01-28T02:00:42.886Z,61.83
2018-01-28T02:03:10.543Z,64.53
2018-01-28T02:05:38.229Z,62.13
2018-01-28T02:08:05.806Z,71.20
2018-01-28T02:10:33.403Z,65.87
2018-01-28T02:13:01.071Z,62.20
2018-01-28T02:15:28.656Z,58.83
2018-01-28T02:17:56.315Z,61.20
2018-01-28T02:20:23.932Z,61.70
2018-01-28T02:22:51.526Z,67.23
2018-01-28T02:25:19.081Z,64.57
2018-01-28T02:27:46.718Z,66.50
2018-01-28T02:30:14.300Z,61.17
2018-01-28T02:32:41.880Z,61.20
2018-01-28T02:35:09.506Z,57.37
2018-01-28T02:37:37.086Z,61.90
2018-01-28T02:40:04.655Z,59.97
2018-01-28T02:42:32.274Z,58.83
2018-01-28T02:44:59.928Z,57.47
2018-01-28T02:47:27.617Z,59.50
2018-01-28T02:49:55.407Z,61.27
2018-01-28T02:52:22.977Z,61.77
2018-01-28T02:54:50.738Z,58.87
2018-01-28T02:57:18.364Z,62.33
2018-01-28T02:59:45.951Z,59.17
2018-01-28T03:02:13.539Z,58.97
2018-01-28T03:04:41.154Z,60.67
2018-01-28T03:07:08.844Z,61.27
2018-01-28T03:09:36.416Z,68.17
2018-01-28T03:12:04.028Z,62.30
2018-01-28T03:14:31.607Z,60.67
2018-01-28T03:16:59.312Z,62.63
2018-01-28T03:19:26.968Z,63.43
2018-01-28T03:21:54.530Z,64.87
2018-01-28T03:24:22.206Z,70.50
2018-01-28T03:26:49.837Z,66.10
2018-01-28T03:29:17.437Z,60.43
2018-01-28T03:31:45.406Z,68.97
2018-01-28T03:34:13.144Z,58.87
2018-01-28T03:36:40.761Z,80.47
2018-01-28T03:39:08.457Z,81.60
2018-01-28T03:41:36.079Z,66.70
2018-01-28T03:44:03.663Z,71.60
2018-01-28T03:46:31.248Z,62.67
2018-01-28T03:48:59.096Z,62.27
2018-01-28T03:51:26.770Z,63.10
2018-01-28T03:53:54.444Z,63.67
2018-01-28T03:56:22.057Z,59.10
2018-01-28T03:58:49.754Z,59.10
2018-01-28T04:01:17.341Z,56.27
2018-01-28T04:03:45.000Z,57.67
2018-01-28T04:06:12.581Z,58.87
2018-01-28T04:08:40.414Z,56.50
2018-01-28T04:11:08.046Z,63.03
2018-01-28T04:13:35.620Z,63.43
2018-01-28T04:16:03.234Z,54.87
2018-01-28T04:18:31.268Z,53.37
2018-01-28T04:20:58.823Z,49.17
2018-01-28T04:23:26.395Z,52.87
2018-01-28T04:25:54.008Z,51.47
2018-01-28T04:28:21.584Z,53.00
2018-01-28T04:30:49.151Z,57.97
2018-01-28T04:33:16.773Z,53.80
2018-01-28T04:35:44.484Z,53.37
2018-01-28T04:38:12.056Z,56.83
2018-01-28T04:40:39.663Z,65.00
2018-01-28T04:43:07.230Z,63.33
2018-01-28T04:45:34.812Z,69.40
2018-01-28T04:48:02.587Z,72.60
2018-01-28T04:50:30.246Z,69.83
2018-01-28T04:52:57.841Z,61.53
2018-01-28T04:55:25.472Z,58.50
2018-01-28T04:57:53.102Z,58.07
2018-01-28T05:00:20.731Z,58.50
2018-01-28T05:02:48.399Z,57.40
2018-01-28T05:05:16.029Z,59.40
2018-01-28T05:07:43.693Z,61.10
2018-01-28T05:10:11.471Z,64.60
2018-01-28T05:12:39.083Z,60.27
2018-01-28T05:15:06.679Z,61.47
2018-01-28T05:17:34.443Z,62.37
2018-01-28T05:20:02.080Z,59.97
2018-01-28T05:22:29.701Z,62.83
2018-01-28T05:24:57.318Z,62.67
2018-01-28T05:27:24.947Z,69.27
2018-01-28T05:29:52.588Z,68.13
2018-01-28T05:32:20.297Z,66.40
2018-01-28T05:34:47.980Z,63.57
2018-01-28T05:37:15.628Z,67.57
2018-01-28T05:39:43.234Z,64.30
2018-01-28T05:42:10.948Z,64.80
2018-01-28T05:44:38.537Z,66.10
2018-01-28T05:47:06.149Z,55.80
2018-01-28T05:49:33.734Z,64.40
2018-01-28T05:52:01.352Z,64.17
2018-01-28T05:54:28.965Z,67.57
2018-01-28T05:56:56.554Z,65.57
2018-01-28T05:59:24.138Z,62.20
2018-01-28T06:01:51.793Z,62.57
2018-01-28T06:04:19.395Z,66.10
2018-01-28T06:06:47.163Z,75.13
2018-01-28T06:09:14.774Z,60.90
2018-01-28T06:11:42.347Z,65.77
2018-01-28T06:14:09.907Z,68.55
2018-01-28T06:16:37.516Z,66.50
2018-01-28T06:19:05.110Z,69.47
2018-01-28T06:21:32.695Z,66.60
2018-01-28T06:24:00.312Z,68.63
2018-01-28T06:26:27.931Z,65.83
2018-01-28T06:28:55.565Z,73.32
2018-01-28T06:31:23.184Z,73.50
2018-01-28T06:33:50.763Z,68.67
2018-01-28T06:36:18.343Z,71.30
2018-01-28T06:38:46.040Z,80.40
2018-01-28T06:41:13.810Z,77.27
2018-01-28T06:43:41.375Z,76.70
2018-01-28T06:46:08.987Z,85.53
2018-01-28T06:48:36.616Z,73.83
2018-01-28T06:51:04.210Z,76.90
2018-01-28T06:53:31.927Z,87.53
2018-01-28T06:55:59.516Z,81.03
2018-01-28T06:58:27.110Z,74.47
2018-01-28T07:00:54.724Z,71.37
2018-01-28T07:03:22.307Z,79.27
2018-01-28T07:05:49.888Z,55.67
2018-01-28T07:08:17.554Z,72.67
2018-01-28T07:10:45.127Z,72.37
2018-01-28T07:13:12.727Z,72.40
2018-01-28T07:15:40.356Z,78.47
2018-01-28T07:18:07.963Z,65.57
2018-01-28T07:20:35.539Z,76.60
2018-01-28T07:23:03.154Z,66.47
2018-01-28T07:25:30.733Z,78.40
2018-01-28T07:27:58.342Z,86.43
2018-01-28T07:30:25.959Z,83.60
2018-01-28T07:32:53.539Z,81.63
2018-01-28T07:35:21.099Z,91.63
2018-01-28T07:37:48.706Z,97.00
2018-01-28T07:40:16.489Z,97.10
2018-01-28T07:42:44.079Z,92.10
2018-01-28T07:45:11.700Z,105.10
2018-01-28T07:47:39.270Z,105.13
2018-01-28T07:50:06.929Z,102.93
2018-01-28T07:52:34.558Z,102.30
2018-01-28T07:55:02.132Z,107.27
2018-01-28T07:57:29.915Z,103.30
2018-01-28T07:59:57.592Z,100.37
2018-01-28T08:02:25.181Z,101.73
2018-01-28T08:04:52.808Z,110.37
2018-01-28T08:07:20.449Z,109.33
2018-01-28T08:09:49.660Z,116.70
2018-01-28T08:12:19.162Z,112.13
2018-01-28T08:14:46.799Z,103.67
2018-01-28T08:17:14.396Z,117.47
2018-01-28T08:19:42.338Z,133.27
2018-01-28T08:22:09.975Z,125.23
2018-01-28T08:24:37.603Z,127.60
2018-01-28T08:27:20.899Z,122.97
2018-01-28T08:29:48.539Z,115.03
2018-01-28T08:32:16.157Z,112.37
2018-01-28T08:34:43.806Z,112.13
2018-01-28T08:37:11.364Z,118.73
2018-01-28T08:39:38.970Z,106.10
2018-01-28T08:42:06.602Z,110.10
2018-01-28T08:44:34.222Z,106.27
2018-01-28T08:47:01.838Z,103.00
2018-01-28T08:49:29.455Z,103.77
2018-01-28T08:51:57.037Z,100.60
2018-01-28T08:54:24.657Z,103.83
2018-01-28T08:56:52.278Z,91.27
2018-01-28T08:59:19.865Z,94.47
2018-01-28T09:01:47.458Z,100.90
2018-01-28T09:04:15.064Z,90.50
2018-01-28T09:06:42.666Z,90.93
2018-01-28T09:09:10.253Z,96.10
2018-01-28T09:11:37.870Z,93.30
2018-01-28T09:14:05.482Z,93.47
2018-01-28T09:16:33.064Z,95.43
2018-01-28T09:19:00.691Z,98.93
2018-01-28T09:21:28.282Z,100.40
2018-01-28T09:23:55.862Z,98.60
2018-01-28T09:26:23.496Z,106.60
2018-01-28T09:28:51.074Z,95.53
2018-01-28T09:31:18.653Z,91.43
2018-01-28T09:33:46.270Z,88.20
2018-01-28T09:36:13.857Z,98.00
2018-01-28T09:38:41.431Z,91.63
2018-01-28T09:41:09.086Z,74.67
2018-01-28T09:43:36.646Z,79.70
2018-01-28T09:46:04.271Z,63.03
2018-01-28T09:48:31.871Z,64.10
2018-01-28T09:50:59.436Z,58.00
2018-01-28T09:53:26.996Z,52.50
2018-01-28T09:55:54.590Z,49.73
2018-01-28T09:58:22.145Z,45.07
2018-01-28T10:00:49.715Z,49.03
2018-01-28T10:03:17.300Z,43.63
2018-01-28T10:05:44.864Z,42.10
2018-01-28T10:08:12.478Z,47.90
2018-01-28T10:10:40.075Z,39.20
2018-01-28T10:13:07.652Z,43.00
2018-01-28T10:15:35.240Z,47.20
2018-01-28T10:18:02.834Z,46.83
2018-01-28T10:20:30.401Z,51.47
2018-01-28T10:22:57.972Z,50.50
2018-01-28T10:25:25.575Z,43.80
2018-01-28T10:27:53.144Z,41.80
2018-01-28T10:30:20.722Z,44.63
2018-01-28T10:32:48.340Z,42.43
2018-01-28T10:35:15.940Z,43.03
2018-01-28T10:37:43.515Z,46.63
2018-01-28T10:40:11.144Z,46.80
2018-01-28T10:42:38.718Z,46.80
2018-01-28T10:45:06.281Z,49.27
2018-01-28T10:47:33.886Z,47.80
2018-01-28T10:50:01.477Z,48.33
2018-01-28T10:52:29.042Z,51.30
2018-01-28T10:54:56.636Z,56.03
2018-01-28T10:57:24.212Z,54.67
2018-01-28T10:59:51.765Z,47.57
2018-01-28T11:02:19.350Z,41.73
2018-01-28T11:04:46.915Z,36.97
2018-01-28T11:07:14.502Z,36.37
2018-01-28T11:09:42.109Z,36.87
2018-01-28T11:12:09.669Z,39.53
2018-01-28T11:14:37.223Z,36.50
2018-01-28T11:17:04.870Z,75.97
2018-01-28T11:19:32.452Z,40.37
2018-01-28T11:22:00.042Z,35.20
2018-01-28T11:24:27.695Z,35.57
2018-01-28T11:26:55.297Z,34.93
2018-01-28T11:29:22.869Z,36.90
2018-01-28T11:31:50.531Z,53.50
2018-01-28T11:34:18.080Z,44.93
2018-01-28T11:36:45.663Z,43.10
2018-01-28T11:39:13.310Z,36.10
2018-01-28T11:41:40.897Z,41.73
2018-01-28T11:44:08.474Z,36.10
2018-01-28T11:46:36.083Z,39.80
2018-01-28T11:49:03.702Z,34.07
2018-01-28T11:51:31.270Z,33.77
2018-01-28T11:53:58.878Z,58.57
2018-01-28T11:56:26.787Z,42.93
2018-01-28T11:58:55.069Z,42.47
2018-01-28T12:01:22.728Z,37.70
2018-01-28T12:03:50.290Z,35.70
2018-01-28T12:06:19.257Z,35.23
2018-01-28T12:08:48.689Z,43.43
2018-01-28T12:11:17.784Z,53.57
2018-01-28T12:13:47.719Z,43.27
2018-01-28T12:16:15.495Z,36.70
2018-01-28T12:18:43.064Z,34.47
2018-01-28T12:21:10.638Z,32.53
2018-01-28T12:23:38.241Z,32.70
2018-01-28T12:26:05.815Z,32.83
2018-01-28T12:28:33.471Z,31.63
2018-01-28T12:31:01.086Z,32.60
2018-01-28T12:33:28.688Z,42.17
2018-01-28T12:35:56.253Z,33.83
2018-01-28T12:40:57.672Z,35.67
2018-01-28T12:43:25.284Z,31.97
2018-01-28T12:45:52.866Z,33.67
2018-01-28T12:48:20.438Z,35.93
2018-01-28T12:50:48.054Z,36.20
2018-01-28T12:53:15.628Z,36.60
2018-01-28T12:55:43.214Z,35.70
2018-01-28T12:58:10.805Z,33.07
2018-01-28T13:00:38.376Z,34.90
2018-01-28T13:03:05.932Z,37.40
2018-01-28T13:05:33.547Z,38.20
2018-01-28T13:08:01.129Z,32.97
2018-01-28T13:10:28.701Z,42.90
2018-01-28T13:12:56.302Z,36.50
2018-01-28T13:15:23.909Z,39.53
2018-01-28T13:17:51.479Z,39.10
2018-01-28T13:20:19.064Z,36.90
2018-01-28T13:22:46.636Z,36.90
2018-01-28T13:25:14.223Z,33.53
2018-01-28T13:27:41.813Z,49.10
2018-01-28T13:30:09.479Z,37.57
2018-01-28T13:32:37.046Z,50.20
2018-01-28T13:35:04.680Z,40.67
2018-01-28T13:37:32.250Z,32.13
2018-01-28T13:39:59.810Z,29.13
2018-01-28T13:42:27.422Z,31.10
2018-01-28T13:44:55.065Z,29.43
2018-01-28T13:47:22.655Z,30.60
2018-01-28T13:49:50.274Z,31.20
2018-01-28T13:52:17.831Z,30.00
2018-01-28T13:54:45.406Z,30.67
2018-01-28T13:57:13.026Z,33.60
2018-01-28T13:59:40.595Z,36.60
2018-01-28T14:02:08.212Z,31.27
2018-01-28T14:04:35.821Z,32.77
2018-01-28T14:07:03.403Z,33.60
2018-01-28T14:09:31.082Z,31.00
2018-01-28T14:11:58.686Z,31.87
2018-01-28T14:14:26.268Z,33.17
2018-01-28T14:16:53.850Z,32.17
2018-01-28T14:19:21.463Z,35.17
2018-01-28T14:21:49.022Z,33.00
2018-01-28T14:24:16.602Z,32.60
2018-01-28T14:26:44.221Z,36.27
2018-01-28T14:29:11.788Z,39.63
2018-01-28T14:31:39.412Z,37.83
2018-01-28T14:34:07.017Z,39.10
2018-01-28T14:36:34.579Z,37.40
2018-01-28T14:39:02.230Z,34.40
2018-01-28T14:41:29.850Z,40.73
2018-01-28T14:43:57.449Z,44.90
2018-01-28T14:46:25.066Z,42.90
2018-01-28T14:48:52.703Z,41.43
2018-01-28T14:51:20.379Z,43.47
2018-01-28T14:53:48.036Z,43.27
2018-01-28T14:56:15.684Z,42.63
2018-01-28T14:58:43.318Z,41.17
2018-01-28T15:01:10.881Z,38.50
2018-01-28T15:03:38.505Z,40.00
2018-01-28T15:06:06.099Z,42.40
2018-01-28T15:08:33.674Z,40.10
2018-01-28T15:11:01.274Z,40.20
2018-01-28T15:13:28.838Z,40.23
2018-01-28T15:15:56.396Z,42.60
2018-01-28T15:18:24.000Z,43.33
2018-01-28T15:20:51.592Z,47.67
2018-01-28T15:23:19.212Z,45.17
2018-01-28T15:25:46.830Z,47.33
2018-01-28T15:28:14.398Z,44.80
2018-01-28T15:30:41.970Z,47.90
2018-01-28T15:33:09.579Z,44.90
2018-01-28T15:35:37.151Z,41.27
2018-01-28T15:38:04.758Z,44.80
2018-01-28T15:40:32.373Z,44.77
2018-01-28T15:42:59.971Z,42.70
2018-01-28T15:45:27.529Z,45.80
2018-01-28T15:47:55.131Z,38.67
2018-01-28T15:50:22.765Z,38.77
2018-01-28T15:52:50.454Z,41.60
2018-01-28T15:55:18.073Z,43.83
2018-01-28T15:57:45.667Z,44.30
2018-01-28T16:00:13.262Z,39.83
2018-01-28T16:02:40.847Z,39.97
2018-01-28T16:05:08.486Z,53.00
2018-01-28T16:07:36.070Z,49.83
2018-01-28T16:10:03.685Z,46.10
2018-01-28T16:12:31.258Z,40.03
2018-01-28T16:14:58.822Z,58.53
2018-01-28T16:17:26.495Z,46.73
2018-01-28T16:19:54.055Z,38.70
2018-01-28T16:22:21.650Z,39.20
2018-01-28T16:24:49.296Z,49.50
2018-01-28T16:27:16.994Z,47.63
2018-01-28T16:29:44.654Z,45.80
2018-01-28T16:32:12.285Z,57.88
2018-01-28T16:34:39.857Z,73.67
2018-01-28T16:37:07.415Z,59.50
2018-01-28T16:39:35.014Z,66.93
2018-01-28T16:42:02.587Z,58.27
2018-01-28T16:44:30.232Z,65.80
2018-01-28T16:46:57.835Z,59.60
2018-01-28T16:49:25.460Z,57.33
2018-01-28T16:51:53.037Z,49.30
2018-01-28T16:54:20.644Z,60.00
2018-01-28T16:56:48.227Z,59.47
2018-01-28T16:59:15.800Z,48.70
2018-01-28T17:01:43.399Z,53.10
2018-01-28T17:04:10.951Z,60.00
2018-01-28T17:06:38.632Z,79.50
2018-01-28T17:09:06.283Z,81.93
2018-01-28T17:11:33.898Z,66.67
2018-01-28T17:14:01.515Z,69.60
2018-01-28T17:16:29.104Z,62.07
2018-01-28T17:18:56.662Z,63.10
2018-01-28T17:21:24.271Z,61.60
2018-01-28T17:23:51.926Z,55.20
2018-01-28T17:26:19.512Z,64.03
2018-01-28T17:28:47.081Z,53.60
2018-01-28T17:31:14.703Z,61.43
2018-01-28T17:33:42.751Z,57.13
2018-01-28T17:36:10.364Z,67.00
2018-01-28T17:38:38.112Z,63.80
2018-01-28T17:41:05.706Z,54.80
2018-01-28T17:43:34.084Z,62.50
2018-01-28T17:46:01.762Z,65.93
2018-01-28T17:48:29.328Z,75.40
2018-01-28T17:50:57.341Z,51.63
2018-01-28T17:53:25.023Z,60.57
2018-01-28T17:55:52.627Z,59.53
2018-01-28T17:58:20.246Z,62.37
2018-01-28T18:00:47.852Z,68.97
2018-01-28T18:03:15.487Z,69.70
2018-01-28T18:05:43.068Z,59.73
2018-01-28T18:08:10.746Z,88.97
2018-01-28T18:10:38.417Z,129.00
2018-01-28T18:13:06.069Z,69.57
2018-01-28T18:15:33.665Z,56.07
2018-01-28T18:18:01.226Z,60.73
2018-01-28T18:20:28.838Z,65.33
2018-01-28T18:22:56.508Z,63.07
2018-01-28T18:25:24.074Z,58.27
2018-01-28T18:27:51.665Z,63.00
2018-01-28T18:30:19.510Z,73.47
2018-01-28T18:32:47.097Z,77.90
2018-01-28T18:35:14.689Z,71.07
2018-01-28T18:37:42.281Z,61.70
2018-01-28T18:40:09.856Z,59.80
2018-01-28T18:42:37.504Z,71.90
2018-01-28T18:45:05.158Z,60.63
2018-01-28T18:47:32.889Z,65.50
2018-01-28T18:50:00.459Z,75.60
2018-01-28T18:52:28.152Z,80.20
2018-01-28T18:54:55.725Z,85.63
2018-01-28T18:57:23.309Z,140.23
2018-01-28T18:59:51.126Z,248.37
2018-01-28T19:02:18.713Z,103.13
2018-01-28T19:04:46.295Z,80.57
2018-01-28T19:07:13.930Z,85.67
2018-01-28T19:09:41.572Z,96.50
2018-01-28T19:12:09.206Z,235.17
2018-01-28T19:14:37.048Z,144.47
2018-01-28T19:17:04.732Z,163.23
2018-01-28T19:19:32.354Z,80.63
2018-01-28T19:22:00.032Z,71.00
2018-01-28T19:24:27.632Z,66.30
2018-01-28T19:26:55.241Z,63.50
2018-01-28T19:29:22.883Z,70.70
2018-01-28T19:31:50.470Z,67.23
2018-01-28T19:34:18.032Z,65.87
2018-01-28T19:36:45.635Z,92.65
2018-01-28T19:39:13.248Z,128.90
2018-01-28T19:41:40.813Z,134.10
2018-01-28T19:44:08.437Z,71.63
2018-01-28T19:46:36.059Z,65.47
2018-01-28T19:49:03.661Z,75.73
2018-01-28T19:51:31.317Z,83.70
2018-01-28T19:53:58.887Z,93.30
2018-01-28T19:56:26.494Z,95.53
2018-01-28T19:58:54.113Z,106.83
2018-01-28T20:01:21.712Z,116.23
2018-01-28T20:03:49.285Z,101.80
2018-01-28T20:06:16.902Z,95.83
2018-01-28T20:08:44.464Z,87.00
2018-01-28T20:11:12.049Z,102.60
2018-01-28T20:13:39.660Z,93.80
2018-01-28T20:16:07.428Z,82.95
2018-01-28T20:18:35.030Z,85.40
2018-01-28T20:21:02.652Z,80.87
2018-01-28T20:23:30.412Z,81.20
2018-01-28T20:25:58.121Z,74.77
2018-01-28T20:28:25.735Z,68.20
2018-01-28T20:30:53.336Z,65.30
2018-01-28T20:33:20.956Z,76.50
2018-01-28T20:35:48.630Z,102.80
2018-01-28T20:38:16.220Z,90.70
2018-01-28T20:40:43.827Z,99.43
2018-01-28T20:43:11.441Z,120.63
2018-01-28T20:45:39.080Z,79.40
2018-01-28T20:48:06.637Z,69.30
2018-01-28T20:50:34.264Z,88.00
2018-01-28T20:53:01.871Z,95.03
2018-01-28T20:55:29.448Z,80.57
2018-01-28T20:57:57.045Z,95.77
2018-01-28T21:00:24.691Z,127.23
2018-01-28T21:02:52.251Z,68.27
2018-01-28T21:05:19.897Z,74.53
2018-01-28T21:07:47.509Z,202.80
2018-01-28T21:10:15.099Z,109.07
2018-01-28T21:12:42.750Z,96.30
2018-01-28T21:15:13.644Z,83.20
2018-01-28T21:17:41.376Z,71.97
2018-01-28T21:20:08.968Z,64.17
2018-01-28T21:22:36.561Z,75.40
2018-01-28T21:25:04.229Z,95.70
2018-01-28T21:27:31.896Z,77.70
2018-01-28T21:29:59.542Z,75.30
2018-01-28T21:32:27.112Z,75.87
2018-01-28T21:34:54.811Z,70.30
2018-01-28T21:37:22.403Z,100.33
2018-01-28T21:39:49.995Z,69.27
2018-01-28T21:42:18.526Z,130.50
2018-01-28T21:44:46.100Z,72.47
2018-01-28T21:47:13.745Z,65.67
2018-01-28T21:49:41.347Z,69.80
2018-01-28T21:52:08.944Z,67.27
2018-01-28T21:54:36.586Z,70.60
2018-01-28T21:57:04.192Z,70.23
2018-01-28T21:59:31.809Z,65.87
2018-01-28T22:01:59.376Z,67.97
2018-01-28T22:04:26.991Z,69.73
2018-01-28T22:06:54.588Z,76.67
2018-01-28T22:09:24.727Z,82.13
2018-01-28T22:11:52.343Z,79.13
2018-01-28T22:14:19.931Z,71.13
2018-01-28T22:16:47.495Z,73.33
2018-01-28T22:19:15.139Z,76.97
2018-01-28T22:21:42.786Z,72.17
2018-01-28T22:24:10.340Z,73.20
2018-01-28T22:26:37.982Z,80.20
2018-01-28T22:29:05.624Z,81.37
2018-01-28T22:31:33.211Z,82.33
2018-01-28T22:34:00.845Z,71.70
2018-01-28T22:36:28.447Z,64.03
2018-01-28T22:38:56.106Z,68.83
2018-01-28T22:41:23.692Z,74.17
2018-01-28T22:43:51.257Z,71.37
2018-01-28T22:46:18.856Z,82.70
2018-01-28T22:48:46.434Z,90.23
2018-01-28T22:51:14.026Z,76.27
2018-01-28T22:53:41.622Z,74.80
2018-01-28T22:56:09.207Z,73.37
2018-01-28T22:58:36.787Z,75.60
2018-01-28T23:01:04.415Z,78.20
2018-01-28T23:03:32.022Z,68.97
2018-01-28T23:05:59.597Z,71.73
2018-01-28T23:08:27.207Z,78.93
2018-01-28T23:10:54.779Z,80.63
2018-01-28T23:13:22.344Z,72.97
2018-01-28T23:15:49.970Z,74.77
2018-01-28T23:18:17.542Z,70.27
2018-01-28T23:20:45.149Z,78.77
2018-01-28T23:23:12.734Z,90.15
2018-01-28T23:25:40.405Z,71.20
2018-01-28T23:28:08.040Z,68.03
2018-01-28T23:30:35.654Z,83.50
2018-01-28T23:33:03.233Z,78.87
2018-01-28T23:35:30.835Z,78.10
2018-01-28T23:37:58.506Z,82.57
2018-01-28T23:40:26.094Z,86.17
2018-01-28T23:42:53.680Z,83.77
2018-01-28T23:45:21.275Z,80.87
2018-01-28T23:47:48.854Z,89.87
2018-01-28T23:50:16.437Z,100.97
2018-01-28T23:52:44.049Z,77.67
2018-01-28T23:55:11.614Z,97.27
2018-01-28T23:57:39.188Z,72.47
